createdAt,value
2023-02-11T00:00:23.779Z,1.92
2023-02-11T00:04:45.766Z,1.95
2023-02-11T00:08:48.097Z,2.04
2023-02-11T00:12:50.660Z,2.15
2023-02-11T00:16:52.912Z,2.21
2023-02-11T00:20:55.219Z,2.21
2023-02-11T00:24:57.328Z,2.17
2023-02-11T00:29:00.954Z,2.19
2023-02-11T00:33:03.692Z,2.18
2023-02-11T00:37:07.923Z,2.27
2023-02-11T00:41:10.498Z,2.36
2023-02-11T00:45:13.286Z,2.27
2023-02-11T00:49:15.892Z,2.24
2023-02-11T00:53:18.053Z,2.12
2023-02-11T00:57:20.161Z,2.26
2023-02-11T01:01:22.784Z,2.27
2023-02-11T01:05:25.060Z,2.31
2023-02-11T01:09:27.222Z,2.13
2023-02-11T01:13:31.103Z,2.16
2023-02-11T01:17:34.713Z,2.23
2023-02-11T01:21:36.878Z,2.14
2023-02-11T01:25:38.769Z,2.17
2023-02-11T01:29:41.047Z,2.11
2023-02-11T01:33:43.255Z,2.07
2023-02-11T01:37:45.476Z,2.07
2023-02-11T01:41:47.499Z,2.11
2023-02-11T01:45:55.668Z,2.14
2023-02-11T01:50:00.810Z,2.10
2023-02-11T01:54:24.096Z,2.06
2023-02-11T01:58:30.350Z,2.15
2023-02-11T02:02:48.950Z,2.17
2023-02-11T02:06:59.323Z,2.20
2023-02-11T02:11:03.609Z,2.33
2023-02-11T02:15:32.742Z,2.23
2023-02-11T02:19:53.480Z,2.30
2023-02-11T02:24:21.958Z,2.20
2023-02-11T02:28:30.294Z,2.21
2023-02-11T02:32:38.269Z,2.31
2023-02-11T02:36:46.277Z,2.24
2023-02-11T02:40:51.113Z,2.30
2023-02-11T02:44:53.588Z,2.34
2023-02-11T02:48:57.018Z,2.21
2023-02-11T02:53:08.178Z,2.29
2023-02-11T02:57:30.525Z,2.31
2023-02-11T03:01:43.575Z,2.36
2023-02-11T03:05:57.115Z,2.29
2023-02-11T03:10:25.352Z,2.22
2023-02-11T03:14:30.634Z,2.27
2023-02-11T03:18:36.711Z,2.28
2023-02-11T03:22:47.953Z,2.31
2023-02-11T03:26:54.206Z,2.28
2023-02-11T03:31:24.068Z,2.13
2023-02-11T03:35:32.079Z,2.05
2023-02-11T03:39:38.187Z,2.03
2023-02-11T03:43:48.628Z,2.14
2023-02-11T03:48:29.723Z,2.10
2023-02-11T03:52:33.552Z,2.12
2023-02-11T03:56:42.206Z,2.10
2023-02-11T04:00:44.739Z,1.97
2023-02-11T04:04:47.229Z,2.13
2023-02-11T04:08:49.239Z,2.08
2023-02-11T04:12:51.259Z,2.00
2023-02-11T04:16:53.589Z,1.89
2023-02-11T04:20:55.640Z,1.93
2023-02-11T04:24:57.585Z,2.10
2023-02-11T04:28:59.566Z,1.89
2023-02-11T04:33:01.540Z,1.91
2023-02-11T04:37:03.558Z,1.94
2023-02-11T04:41:05.658Z,1.85
2023-02-11T04:45:08.072Z,1.98
2023-02-11T04:49:13.554Z,1.87
2023-02-11T04:53:15.554Z,1.84
2023-02-11T04:57:17.489Z,1.88
2023-02-11T05:01:19.618Z,1.84
2023-02-11T05:05:21.804Z,1.64
2023-02-11T05:09:23.750Z,1.63
2023-02-11T05:13:25.629Z,1.71
2023-02-11T05:17:27.637Z,1.68
2023-02-11T05:21:29.822Z,1.65
2023-02-11T05:25:31.857Z,1.72
2023-02-11T05:29:33.877Z,1.81
2023-02-11T05:33:35.977Z,1.65
2023-02-11T05:37:38.540Z,1.81
2023-02-11T05:41:40.585Z,1.90
2023-02-11T05:45:42.501Z,1.91
2023-02-11T05:49:44.474Z,1.82
2023-02-11T05:53:46.441Z,1.90
2023-02-11T05:57:48.436Z,1.93
2023-02-11T06:01:50.431Z,2.07
2023-02-11T06:05:52.614Z,2.15
2023-02-11T06:09:54.389Z,2.23
2023-02-11T06:13:56.356Z,2.21
2023-02-11T06:17:58.512Z,2.30
2023-02-11T06:22:00.522Z,2.26
2023-02-11T06:26:04.327Z,2.29
2023-02-11T06:30:07.561Z,2.31
2023-02-11T06:34:10.464Z,2.26
2023-02-11T06:38:12.423Z,2.19
2023-02-11T06:42:14.465Z,2.20
2023-02-11T06:46:16.592Z,2.32
2023-02-11T06:50:18.878Z,2.49
2023-02-11T06:54:20.853Z,2.31
2023-02-11T06:58:23.067Z,2.51
2023-02-11T07:02:25.276Z,2.54
2023-02-11T07:06:28.184Z,2.56
2023-02-11T07:10:30.367Z,2.53
2023-02-11T07:14:32.348Z,2.55
2023-02-11T07:18:34.437Z,2.67
2023-02-11T07:22:36.410Z,2.56
2023-02-11T07:26:38.672Z,2.39
2023-02-11T07:30:40.860Z,2.33
2023-02-11T07:34:42.834Z,2.16
2023-02-11T07:38:45.309Z,2.12
2023-02-11T07:42:47.302Z,1.91
2023-02-11T07:46:49.385Z,1.96
2023-02-11T07:50:51.444Z,1.92
2023-02-11T07:54:53.175Z,1.88
2023-02-11T07:58:56.794Z,1.81
2023-02-11T08:02:58.719Z,1.82
2023-02-11T08:07:00.806Z,1.78
2023-02-11T08:11:10.142Z,1.85
2023-02-11T08:15:12.353Z,1.70
2023-02-11T08:19:16.234Z,1.64
2023-02-11T08:23:17.862Z,1.61
2023-02-11T08:27:19.815Z,1.50
2023-02-11T08:31:29.362Z,1.45
2023-02-11T08:35:32.947Z,1.48
2023-02-11T08:39:35.018Z,1.42
2023-02-11T08:43:41.646Z,1.33
2023-02-11T08:47:43.695Z,1.25
2023-02-11T08:51:46.166Z,1.33
2023-02-11T08:55:53.007Z,1.37
2023-02-11T08:59:55.120Z,1.47
2023-02-11T09:03:58.703Z,1.55
2023-02-11T09:08:00.792Z,1.69
2023-02-11T09:12:02.851Z,1.85
2023-02-11T09:16:05.549Z,1.79
2023-02-11T09:20:10.769Z,1.96
2023-02-11T09:24:12.974Z,1.98
2023-02-11T09:28:14.989Z,2.13
2023-02-11T09:32:16.815Z,2.18
2023-02-11T09:36:24.233Z,2.18
2023-02-11T09:40:26.368Z,2.39
2023-02-11T09:44:31.454Z,2.39
2023-02-11T09:48:41.851Z,2.43
2023-02-11T09:53:04.059Z,2.31
2023-02-11T09:57:22.842Z,2.43
2023-02-11T10:01:49.881Z,2.22
2023-02-11T10:06:07.729Z,2.27
2023-02-11T10:10:30.630Z,2.24
2023-02-11T10:14:51.252Z,2.32
2023-02-11T10:19:14.460Z,2.32
2023-02-11T10:23:29.452Z,2.19
2023-02-11T10:27:33.858Z,2.28
2023-02-11T10:31:39.946Z,2.17
2023-02-11T10:35:43.855Z,2.27
2023-02-11T10:39:45.528Z,2.17
2023-02-11T10:43:48.040Z,2.32
2023-02-11T10:47:50.095Z,2.21
2023-02-11T10:52:17.364Z,2.26
2023-02-11T10:56:26.871Z,2.23
2023-02-11T11:00:40.892Z,2.37
2023-02-11T11:04:45.177Z,2.32
2023-02-11T11:08:51.645Z,2.52
2023-02-11T11:12:53.664Z,2.53
2023-02-11T11:16:55.758Z,2.51
2023-02-11T11:21:05.777Z,2.63
2023-02-11T11:25:29.364Z,2.63
2023-02-11T11:29:35.914Z,2.75
2023-02-11T11:33:42.865Z,2.67
2023-02-11T11:37:46.073Z,2.68
2023-02-11T11:42:00.369Z,2.71
2023-02-11T11:46:02.930Z,2.71
2023-02-11T11:50:27.823Z,2.65
2023-02-11T11:54:31.616Z,2.63
2023-02-11T11:58:34.739Z,2.59
2023-02-11T12:03:08.528Z,2.67
2023-02-11T12:07:31.694Z,2.67
2023-02-11T12:11:49.000Z,2.68
2023-02-11T12:16:07.032Z,2.75
2023-02-11T12:20:23.623Z,2.81
2023-02-11T12:24:56.090Z,2.83
2023-02-11T12:29:37.452Z,2.89
2023-02-11T12:33:57.501Z,3.04
2023-02-11T12:38:08.465Z,2.97
2023-02-11T12:42:51.690Z,3.11
2023-02-11T12:47:04.225Z,3.11
2023-02-11T12:51:12.987Z,3.20
2023-02-11T12:55:20.023Z,3.21
2023-02-11T12:59:44.737Z,3.26
2023-02-11T13:03:59.464Z,3.22
2023-02-11T13:08:15.534Z,3.36
2023-02-11T13:12:36.745Z,3.41
2023-02-11T13:16:42.530Z,3.39
2023-02-11T13:20:55.709Z,3.41
2023-02-11T13:25:15.494Z,3.40
2023-02-11T13:29:34.245Z,3.41
2023-02-11T13:33:39.516Z,3.50
2023-02-11T13:37:47.742Z,3.56
2023-02-11T13:41:52.845Z,3.49
2023-02-11T13:46:14.602Z,3.47
2023-02-11T13:50:23.611Z,3.50
2023-02-11T13:54:31.235Z,3.53
2023-02-11T13:58:37.202Z,3.50
2023-02-11T14:02:57.815Z,3.48
2023-02-11T14:07:44.466Z,3.50
2023-02-11T14:11:51.913Z,3.57
2023-02-11T14:16:10.595Z,3.49
2023-02-11T14:20:33.188Z,3.54
2023-02-11T14:24:35.266Z,3.60
2023-02-11T14:28:38.999Z,3.53
2023-02-11T14:33:18.426Z,3.64
2023-02-11T14:37:58.000Z,3.67
2023-02-11T14:42:01.438Z,3.69
2023-02-11T14:46:03.734Z,3.68
2023-02-11T14:50:09.602Z,3.74
2023-02-11T14:54:22.837Z,3.71
2023-02-11T14:58:32.532Z,3.82
2023-02-11T15:02:39.181Z,3.76
2023-02-11T15:06:45.997Z,3.63
2023-02-11T15:10:48.066Z,3.61
2023-02-11T15:14:53.212Z,3.56
2023-02-11T15:19:01.059Z,3.50
2023-02-11T15:23:09.628Z,3.54
2023-02-11T15:27:16.165Z,3.55
2023-02-11T15:31:21.305Z,3.59
2023-02-11T15:35:23.602Z,3.61
2023-02-11T15:39:53.113Z,3.59
2023-02-11T15:43:55.111Z,3.66
2023-02-11T15:48:13.221Z,3.59
2023-02-11T15:52:24.114Z,3.66
2023-02-11T15:56:43.465Z,3.64
2023-02-11T16:00:54.668Z,3.73
2023-02-11T16:05:03.782Z,3.66
2023-02-11T16:09:33.662Z,3.74
2023-02-11T16:13:46.558Z,3.73
2023-02-11T16:17:48.813Z,3.82
2023-02-11T16:21:51.290Z,3.88
2023-02-11T16:26:33.012Z,3.94
2023-02-11T16:30:40.551Z,3.95
2023-02-11T16:34:42.652Z,4.08
2023-02-11T16:38:44.626Z,4.08
2023-02-11T16:42:46.820Z,4.07
2023-02-11T16:46:48.888Z,4.12
2023-02-11T16:50:53.540Z,4.30
2023-02-11T16:54:55.742Z,4.31
2023-02-11T16:58:57.688Z,4.39
2023-02-11T17:02:59.662Z,4.32
2023-02-11T17:07:01.738Z,4.39
2023-02-11T17:11:03.698Z,4.47
2023-02-11T17:15:07.593Z,4.53
2023-02-11T17:19:15.800Z,4.58
2023-02-11T17:23:17.807Z,4.53
2023-02-11T17:27:19.696Z,4.66
2023-02-11T17:31:22.020Z,4.72
2023-02-11T17:35:24.167Z,4.76
2023-02-11T17:39:26.762Z,4.74
2023-02-11T17:43:29.156Z,4.97
2023-02-11T17:47:31.336Z,5.09
2023-02-11T17:51:39.337Z,5.09
2023-02-11T17:55:41.455Z,4.94
2023-02-11T17:59:43.651Z,4.85
2023-02-11T18:03:45.824Z,5.02
2023-02-11T18:07:48.677Z,4.97
2023-02-11T18:11:52.648Z,5.08
2023-02-11T18:15:55.033Z,5.07
2023-02-11T18:19:57.424Z,5.22
2023-02-11T18:24:04.544Z,5.18
2023-02-11T18:28:08.474Z,5.14
2023-02-11T18:32:10.419Z,5.22
2023-02-11T18:36:14.907Z,5.34
2023-02-11T18:40:17.058Z,5.36
2023-02-11T18:44:22.347Z,5.27
2023-02-11T18:48:27.045Z,5.40
2023-02-11T18:52:29.232Z,5.45
2023-02-11T18:56:31.171Z,5.40
2023-02-11T19:00:33.837Z,5.49
2023-02-11T19:04:37.326Z,5.17
2023-02-11T19:08:39.436Z,5.27
2023-02-11T19:12:41.991Z,5.20
2023-02-11T19:16:45.958Z,5.22
2023-02-11T19:20:47.885Z,5.24
2023-02-11T19:24:49.964Z,5.27
2023-02-11T19:28:52.125Z,5.30
2023-02-11T19:32:57.136Z,5.24
2023-02-11T19:37:01.544Z,5.45
2023-02-11T19:41:05.122Z,5.35
2023-02-11T19:45:07.549Z,5.34
2023-02-11T19:49:14.469Z,5.35
2023-02-11T19:53:16.464Z,5.29
2023-02-11T19:57:18.538Z,5.36
2023-02-11T20:01:22.414Z,5.38
2023-02-11T20:05:24.488Z,5.25
2023-02-11T20:09:28.456Z,5.28
2023-02-11T20:13:30.764Z,5.17
2023-02-11T20:17:32.691Z,5.22
2023-02-11T20:21:34.780Z,5.19
2023-02-11T20:25:39.479Z,5.23
2023-02-11T20:29:41.576Z,5.18
2023-02-11T20:33:45.030Z,5.13
2023-02-11T20:37:47.086Z,5.09
2023-02-11T20:41:49.906Z,5.10
2023-02-11T20:45:52.230Z,5.12
2023-02-11T20:49:55.541Z,5.13
2023-02-11T20:53:57.662Z,4.93
2023-02-11T20:57:59.578Z,5.14
2023-02-11T21:02:01.747Z,5.21
2023-02-11T21:06:03.894Z,5.15
2023-02-11T21:10:06.232Z,5.13
2023-02-11T21:14:09.882Z,5.10
2023-02-11T21:18:11.871Z,5.01
2023-02-11T21:22:13.842Z,4.87
2023-02-11T21:26:16.954Z,4.83
2023-02-11T21:30:19.038Z,4.74
2023-02-11T21:34:21.215Z,4.76
2023-02-11T21:38:23.365Z,4.64
2023-02-11T21:42:25.384Z,4.56
2023-02-11T21:46:27.775Z,4.56
2023-02-11T21:50:29.860Z,4.53
2023-02-11T21:54:32.881Z,4.42
2023-02-11T21:58:35.703Z,4.43
2023-02-11T22:02:38.921Z,4.25
2023-02-11T22:06:41.066Z,4.21
2023-02-11T22:10:43.096Z,4.17
2023-02-11T22:14:47.120Z,4.29
2023-02-11T22:18:49.168Z,4.12
2023-02-11T22:22:51.113Z,4.01
2023-02-11T22:26:53.090Z,3.84
2023-02-11T22:30:56.332Z,3.65
2023-02-11T22:34:58.282Z,3.66
2023-02-11T22:39:02.827Z,3.54
2023-02-11T22:43:04.538Z,3.48
2023-02-11T22:47:06.586Z,3.43
2023-02-11T22:51:14.337Z,3.42
2023-02-11T22:55:16.435Z,3.44
2023-02-11T22:59:19.388Z,3.16
2023-02-11T23:03:21.432Z,3.02
2023-02-11T23:07:23.091Z,3.04
2023-02-11T23:11:28.199Z,2.82
2023-02-11T23:15:31.041Z,2.79
2023-02-11T23:19:32.730Z,2.71
2023-02-11T23:23:35.729Z,2.61
2023-02-11T23:27:37.538Z,2.44
2023-02-11T23:31:41.223Z,2.32
2023-02-11T23:35:43.594Z,2.43
2023-02-11T23:39:45.571Z,2.31
2023-02-11T23:43:52.139Z,2.33
2023-02-11T23:47:54.080Z,2.29
2023-02-11T23:51:56.217Z,2.34
2023-02-11T23:55:58.125Z,2.08
